Time;durP1;ratioP1;P1;durP2;ratioP2;P2;SDS_P1;SDS_P2;PMS_P1;PMS_P2;Temp;Humidity;BMP_temperature;BMP_pressure;BME280_temperature;BME280_humidity;BME280_pressure;Samples;Min_cycle;Max_cycle;Signal;HPM_P1;HPM_P2
2022/11/06 00:01:36;;;;;;;7.10;2.90;;;22.10;59.50;;;;;;4060373;29;20028;-55
2022/11/06 00:03:59;;;;;;;5.28;2.70;;;22.10;59.30;;;;;;4056016;29;20051;-55
2022/11/06 00:09:05;;;;;;;5.13;2.60;;;22.20;59.10;;;;;;4058118;29;20063;-57
2022/11/06 00:11:29;;;;;;;4.00;2.65;;;22.20;58.90;;;;;;4055512;29;20036;-58
2022/11/06 00:13:51;;;;;;;4.32;2.90;;;22.20;58.90;;;;;;4050249;29;20043;-57
2022/11/06 00:16:14;;;;;;;3.75;2.65;;;22.30;58.80;;;;;;4047324;29;20457;-54
2022/11/06 00:18:38;;;;;;;4.80;2.40;;;22.30;58.80;;;;;;4051012;29;20036;-57
2022/11/06 00:21:08;;;;;;;6.13;3.17;;;22.30;58.70;;;;;;4049149;29;20188;-58
2022/11/06 00:23:31;;;;;;;4.53;2.90;;;22.30;58.60;;;;;;4053767;29;20048;-56
2022/11/06 00:25:55;;;;;;;7.75;3.33;;;22.40;58.50;;;;;;4052023;29;20115;-57
2022/11/06 00:28:17;;;;;;;;;;;22.40;58.50;;;;;;4049510;29;20071;-57
2022/11/06 00:30:39;;;;;;;5.38;3.10;;;22.40;58.40;;;;;;4050869;29;20368;-56
2022/11/06 00:33:02;;;;;;;4.47;3.00;;;22.40;58.40;;;;;;4051141;29;20040;-57
2022/11/06 00:35:25;;;;;;;4.22;3.00;;;22.40;58.50;;;;;;4050997;29;20028;-55
2022/11/06 00:37:47;;;;;;;4.45;3.15;;;22.50;58.40;;;;;;4054107;29;20096;-55
2022/11/06 00:40:11;;;;;;;4.85;2.90;;;22.50;58.20;;;;;;4050746;29;20048;-57
2022/11/06 00:42:33;;;;;;;6.45;2.80;;;22.50;58.30;;;;;;4053092;29;20044;-56
2022/11/06 00:44:56;;;;;;;3.95;2.72;;;22.50;58.20;;;;;;4051432;29;20078;-57
2022/11/06 00:47:18;;;;;;;3.47;2.42;;;22.50;58.10;;;;;;4046997;29;20040;-56
2022/11/06 00:49:41;;;;;;;4.07;2.65;;;22.50;58.10;;;;;;4052842;29;20075;-57
2022/11/06 00:52:04;;;;;;;3.88;2.60;;;22.60;58.20;;;;;;4052894;29;20084;-56
2022/11/06 00:54:26;;;;;;;3.85;2.75;;;22.60;58.00;;;;;;4053158;29;20055;-56
2022/11/06 00:56:49;;;;;;;3.55;2.38;;;22.60;58.00;;;;;;4054997;29;20455;-57
2022/11/06 00:59:13;;;;;;;5.18;2.80;;;22.60;57.90;;;;;;4051437;29;20095;-57
2022/11/06 01:01:41;;;;;;;3.80;2.45;;;22.60;58.40;;;;;;4050862;29;20407;-57
2022/11/06 01:04:16;;;;;;;3.75;2.55;;;22.60;58.00;;;;;;4053026;29;20562;-57
2022/11/06 01:06:41;;;;;;;5.15;2.55;;;22.70;57.80;;;;;;4049457;29;20412;-57
2022/11/06 01:09:05;;;;;;;3.13;2.28;;;22.70;57.80;;;;;;4052534;29;20118;-57
2022/11/06 01:11:34;;;;;;;4.10;2.58;;;22.70;57.80;;;;;;4053854;29;20887;-57
2022/11/06 01:13:59;;;;;;;3.50;2.10;;;22.70;57.70;;;;;;4048947;29;20591;-57
2022/11/06 01:16:24;;;;;;;2.92;2.00;;;22.70;57.70;;;;;;4052542;29;20393;-57
2022/11/06 01:18:46;;;;;;;3.17;1.98;;;22.80;57.70;;;;;;4049033;29;20094;-57
2022/11/06 01:21:13;;;;;;;3.00;2.03;;;22.80;57.60;;;;;;4051120;29;20416;-56
2022/11/06 01:23:35;;;;;;;3.47;1.90;;;22.90;57.70;;;;;;4048996;29;20558;-57
2022/11/06 01:26:03;;;;;;;3.30;2.25;;;22.90;57.60;;;;;;4050192;29;20040;-57
2022/11/06 01:28:26;;;;;;;2.92;1.90;;;22.90;57.60;;;;;;4048466;29;20531;-57
2022/11/06 01:30:48;;;;;;;4.20;1.70;;;22.90;57.40;;;;;;4048497;29;20044;-57
2022/11/06 01:33:13;;;;;;;2.97;1.75;;;22.90;57.50;;;;;;4050932;29;20044;-57
2022/11/06 01:35:43;;;;;;;2.88;1.60;;;23.00;57.60;;;;;;4047073;29;20049;-57
2022/11/06 01:38:05;;;;;;;2.65;1.60;;;23.00;57.40;;;;;;4049932;29;20040;-57
2022/11/06 01:40:28;;;;;;;2.40;1.80;;;23.00;57.20;;;;;;4052869;29;20052;-57
2022/11/06 01:42:50;;;;;;;4.80;1.65;;;23.10;57.50;;;;;;4052124;29;20393;-57
2022/11/06 01:45:37;;;;;;;2.45;1.50;;;23.10;57.40;;;;;;4050880;29;20127;-57
2022/11/06 01:48:00;;;;;;;3.83;1.27;;;23.20;57.20;;;;;;4052052;29;20072;-60
2022/11/06 01:50:23;;;;;;;2.03;1.30;;;23.10;57.00;;;;;;4051440;29;20044;-60
2022/11/06 01:52:47;;;;;;;2.65;1.45;;;23.20;57.00;;;;;;4053551;29;20127;-58
2022/11/06 01:55:22;;;;;;;2.78;1.10;;;23.20;56.80;;;;;;4051599;29;20083;-57
2022/11/06 01:57:44;;;;;;;;;;;23.20;56.80;;;;;;4054020;29;20048;-57
2022/11/06 02:00:07;;;;;;;2.00;1.33;;;23.30;56.80;;;;;;4049766;29;19919;-56
2022/11/06 02:02:30;;;;;;;2.22;1.23;;;23.30;56.50;;;;;;4053237;29;20036;-57
2022/11/06 02:04:52;;;;;;;2.83;1.38;;;23.30;56.20;;;;;;4050710;29;20075;-57
2022/11/06 02:07:17;;;;;;;2.97;1.27;;;23.30;56.00;;;;;;4050210;29;20099;-59
2022/11/06 02:09:40;;;;;;;1.13;1.02;;;23.30;56.00;;;;;;4051819;29;20496;-59
2022/11/06 02:12:31;;;;;;;2.15;1.10;;;23.30;56.00;;;;;;4052580;29;20146;-60
2022/11/06 02:15:11;;;;;;;1.75;1.02;;;23.40;56.00;;;;;;4042091;29;20036;-57
2022/11/06 02:17:43;;;;;;;1.45;1.10;;;23.40;56.30;;;;;;4049566;29;20060;-58
2022/11/06 02:20:48;;;;;;;1.48;0.90;;;23.40;56.00;;;;;;4044837;29;20048;-57
2022/11/06 02:23:44;;;;;;;1.63;0.95;;;23.40;56.10;;;;;;4049906;29;20040;-59
2022/11/06 02:26:19;;;;;;;1.17;0.90;;;23.50;56.60;;;;;;4048160;29;20044;-57
2022/11/06 02:29:00;;;;;;;2.47;1.30;;;23.50;55.70;;;;;;4045561;29;20052;-58
2022/11/06 02:31:30;;;;;;;1.27;0.95;;;23.60;55.60;;;;;;4050220;29;20072;-58
2022/11/06 02:34:00;;;;;;;1.77;1.00;;;23.60;55.90;;;;;;4046285;29;20040;-58
2022/11/06 02:36:30;;;;;;;0.95;0.73;;;23.60;55.70;;;;;;4045927;29;20044;-58
2022/11/06 02:39:01;;;;;;;2.28;0.95;;;23.60;55.70;;;;;;4049036;29;20040;-58
2022/11/06 02:41:28;;;;;;;1.83;1.00;;;23.70;55.60;;;;;;4049018;29;20048;-58
2022/11/06 02:43:55;;;;;;;1.65;1.02;;;23.70;55.60;;;;;;4047484;29;20048;-58
2022/11/06 02:46:40;;;;;;;1.83;0.88;;;23.70;55.70;;;;;;4049229;29;20270;-58
2022/11/06 02:49:28;;;;;;;1.05;0.65;;;23.70;55.60;;;;;;4048258;29;20062;-58
2022/11/06 02:51:56;;;;;;;1.30;0.80;;;23.80;55.80;;;;;;4046818;29;20116;-58
2022/11/06 02:54:21;;;;;;;1.58;0.90;;;23.80;55.70;;;;;;4053386;29;20047;-58
2022/11/06 02:56:47;;;;;;;1.25;0.80;;;23.80;55.60;;;;;;4049773;29;20060;-58
2022/11/06 02:59:28;;;;;;;1.30;1.00;;;23.80;55.40;;;;;;4048045;29;20397;-58
2022/11/06 03:02:04;;;;;;;1.35;0.95;;;23.80;55.30;;;;;;4052831;29;20073;-58
2022/11/06 03:04:45;;;;;;;1.70;0.80;;;23.90;55.30;;;;;;4050953;29;20040;-58
2022/11/06 03:07:19;;;;;;;0.82;0.70;;;23.90;55.30;;;;;;4052487;29;20487;-58
2022/11/06 03:09:43;;;;;;;2.55;1.10;;;23.90;55.30;;;;;;4053523;29;20067;-58
2022/11/06 03:12:25;;;;;;;;;;;23.90;55.20;;;;;;4049861;29;20488;-58
2022/11/06 03:14:48;;;;;;;1.55;0.82;;;24.00;55.50;;;;;;4048168;29;19943;-57
2022/11/06 03:17:12;;;;;;;0.88;0.70;;;24.00;55.30;;;;;;4052422;29;20554;-58
2022/11/06 03:19:46;;;;;;;1.55;0.75;;;24.00;55.20;;;;;;4050740;29;20668;-58
2022/11/06 03:22:11;;;;;;;;;;;24.00;55.30;;;;;;4053355;29;20036;-58
2022/11/06 03:25:01;;;;;;;1.33;0.80;;;24.10;55.30;;;;;;4052616;29;19946;-58
2022/11/06 03:27:46;;;;;;;1.70;0.70;;;24.10;55.00;;;;;;4055320;29;20099;-58
2022/11/06 03:30:11;;;;;;;1.15;0.70;;;24.10;55.00;;;;;;4050846;29;20567;-57
2022/11/06 03:32:44;;;;;;;0.68;0.52;;;24.10;54.90;;;;;;4050117;29;20056;-58
2022/11/06 03:35:38;;;;;;;2.15;0.65;;;24.20;54.80;;;;;;4049798;29;20032;-58
2022/11/06 03:38:28;;;;;;;1.25;0.60;;;24.20;54.80;;;;;;4052175;29;20056;-58
2022/11/06 03:40:57;;;;;;;2.25;1.00;;;24.20;54.60;;;;;;4056327;29;20043;-58
2022/11/06 03:43:25;;;;;;;1.83;0.93;;;24.20;54.50;;;;;;4052838;29;20495;-58
2022/11/06 03:45:50;;;;;;;1.02;0.60;;;24.30;54.60;;;;;;4054875;29;20044;-58
2022/11/06 03:48:33;;;;;;;1.33;0.55;;;24.30;54.30;;;;;;4053420;29;20070;-58
2022/11/06 03:51:20;;;;;;;0.60;0.60;;;24.40;54.30;;;;;;4054543;29;20032;-58
2022/11/06 03:53:48;;;;;;;1.65;0.60;;;24.40;54.20;;;;;;4053661;29;20032;-59
2022/11/06 03:56:22;;;;;;;1.05;0.57;;;24.40;54.20;;;;;;4055271;29;20495;-58
2022/11/06 03:58:47;;;;;;;1.00;0.50;;;24.50;54.30;;;;;;4049821;29;20043;-58
2022/11/06 04:01:12;;;;;;;0.85;0.60;;;24.50;54.50;;;;;;4051831;29;20048;-58
2022/11/06 04:03:44;;;;;;;1.15;0.68;;;24.60;54.30;;;;;;4049573;29;20489;-58
2022/11/06 04:06:22;;;;;;;1.42;0.75;;;24.60;54.20;;;;;;4054428;29;20044;-58
2022/11/06 04:14:14;;;;;;;0.73;0.38;;;24.80;54.30;;;;;;4054116;29;20048;-59
2022/11/06 04:16:47;;;;;;;1.45;0.60;;;24.80;54.20;;;;;;4053722;29;20097;-59
2022/11/06 04:19:16;;;;;;;1.13;0.50;;;24.90;54.20;;;;;;4059376;29;20051;-58
2022/11/06 04:21:43;;;;;;;1.00;0.70;;;24.90;53.80;;;;;;4057397;29;20092;-58
2022/11/06 04:27:22;;;;;;;0.75;0.60;;;25.10;53.60;;;;;;4061864;29;20048;-59
2022/11/06 04:30:02;;;;;;;1.33;0.70;;;25.20;53.60;;;;;;4054718;29;20055;-58
2022/11/06 04:32:50;;;;;;;0.98;0.60;;;25.20;53.40;;;;;;4051434;29;20339;-59
2022/11/06 04:35:24;;;;;;;1.45;0.50;;;25.30;53.60;;;;;;4044118;29;20115;-58
2022/11/06 04:38:09;;;;;;;1.40;0.50;;;25.40;53.40;;;;;;4048101;29;20049;-58
2022/11/06 04:40:58;;;;;;;0.40;0.40;;;25.40;53.30;;;;;;4048988;29;20456;-58
2022/11/06 04:43:42;;;;;;;0.30;0.30;;;25.50;53.20;;;;;;4050199;29;20172;-58
2022/11/06 04:46:08;;;;;;;0.60;0.50;;;25.50;53.00;;;;;;4052162;29;20091;-58
2022/11/06 04:48:31;;;;;;;1.05;0.47;;;25.60;53.10;;;;;;4052525;29;20408;-58
2022/11/06 04:51:02;;;;;;;0.85;0.40;;;25.70;53.00;;;;;;4050634;29;20040;-58
2022/11/06 04:53:26;;;;;;;1.65;0.50;;;25.70;52.80;;;;;;4053736;29;20048;-58
2022/11/06 04:56:00;;;;;;;0.60;0.40;;;25.80;52.70;;;;;;4048728;29;20036;-58
2022/11/06 04:58:23;;;;;;;1.27;0.30;;;25.90;52.60;;;;;;4052573;29;20519;-58
2022/11/06 05:00:48;;;;;;;0.75;0.47;;;25.90;52.50;;;;;;4050301;29;20531;-58
2022/11/06 05:03:11;;;;;;;1.33;0.60;;;26.00;52.40;;;;;;4051877;29;20052;-60
2022/11/06 05:05:33;;;;;;;0.77;0.57;;;26.10;52.40;;;;;;4052018;29;20502;-59
2022/11/06 05:07:56;;;;;;;0.60;0.40;;;26.10;52.40;;;;;;4050133;29;20403;-60
2022/11/06 05:10:18;;;;;;;1.30;0.60;;;26.20;52.30;;;;;;4054803;29;20051;-59
2022/11/06 05:12:42;;;;;;;0.95;0.45;;;26.20;52.20;;;;;;4053303;29;20503;-60
2022/11/06 05:15:04;;;;;;;0.82;0.50;;;26.30;52.10;;;;;;4051675;29;20047;-60
2022/11/06 05:17:27;;;;;;;1.07;0.40;;;26.40;52.20;;;;;;4050857;29;20127;-58
2022/11/06 05:19:50;;;;;;;0.93;0.60;;;26.40;52.10;;;;;;4051448;29;20099;-60
2022/11/06 05:24:53;;;;;;;0.85;0.40;;;26.60;52.20;;;;;;4052465;29;20075;-58
2022/11/06 05:27:15;;;;;;;1.23;0.50;;;26.60;51.90;;;;;;4053294;29;20044;-59
2022/11/06 05:29:38;;;;;;;0.50;0.40;;;26.70;52.40;;;;;;4052352;29;20048;-58
2022/11/06 05:32:00;;;;;;;0.63;0.47;;;26.80;52.00;;;;;;4051976;29;20083;-59
2022/11/06 05:34:23;;;;;;;0.85;0.50;;;26.80;51.70;;;;;;4051472;29;20028;-58
2022/11/06 05:36:46;;;;;;;0.60;0.50;;;26.90;51.60;;;;;;4050020;29;20039;-58
2022/11/06 05:39:08;;;;;;;1.20;0.60;;;26.90;51.90;;;;;;4047938;29;20047;-59
2022/11/06 05:41:31;;;;;;;1.47;0.50;;;26.90;51.60;;;;;;4044358;29;20079;-59
2022/11/06 05:43:53;;;;;;;0.60;0.50;;;27.00;51.50;;;;;;4040837;29;20045;-59
2022/11/06 05:46:16;;;;;;;1.98;0.77;;;27.00;51.50;;;;;;4042995;29;20411;-58
2022/11/06 05:48:38;;;;;;;0.63;0.30;;;27.10;51.40;;;;;;4048955;29;20091;-58
2022/11/06 05:51:07;;;;;;;2.25;0.63;;;27.10;51.40;;;;;;4047511;29;20037;-59
2022/11/06 05:53:37;;;;;;;0.88;0.57;;;27.20;51.40;;;;;;4045059;29;20107;-58
2022/11/06 05:56:00;;;;;;;0.82;0.50;;;27.20;51.60;;;;;;4050225;29;20047;-58
2022/11/06 05:58:22;;;;;;;0.77;0.50;;;27.30;51.50;;;;;;4043840;29;20054;-59
2022/11/06 06:00:45;;;;;;;0.80;0.45;;;27.30;51.40;;;;;;4044661;29;20083;-59
2022/11/06 06:03:08;;;;;;;1.08;0.50;;;27.30;51.20;;;;;;4048589;29;20107;-59
2022/11/06 06:05:31;;;;;;;0.60;0.45;;;27.40;51.40;;;;;;4050811;29;20040;-58
2022/11/06 06:07:53;;;;;;;0.40;0.35;;;27.40;51.20;;;;;;4049673;29;20044;-58
2022/11/06 06:10:16;;;;;;;2.08;0.50;;;27.40;51.10;;;;;;4046429;29;20047;-58
2022/11/06 06:12:39;;;;;;;1.63;0.40;;;27.40;51.20;;;;;;4044413;29;20378;-58
2022/11/06 06:15:01;;;;;;;1.58;0.43;;;27.40;51.10;;;;;;4044321;29;20044;-58
2022/11/06 06:17:24;;;;;;;0.77;0.40;;;27.40;51.20;;;;;;4050825;29;20099;-58
2022/11/06 06:19:47;;;;;;;0.43;0.40;;;27.40;51.30;;;;;;4044525;29;20048;-58
2022/11/06 06:22:10;;;;;;;0.50;0.20;;;27.40;51.10;;;;;;4049444;29;20096;-58
2022/11/06 06:24:34;;;;;;;0.60;0.40;;;27.40;51.90;;;;;;4048163;29;20086;-58
2022/11/06 06:26:56;;;;;;;0.20;0.20;;;27.40;51.10;;;;;;4049554;29;20040;-58
2022/11/06 06:29:19;;;;;;;0.70;0.30;;;27.40;51.10;;;;;;4047015;29;20087;-58
2022/11/06 06:31:41;;;;;;;0.40;0.40;;;27.40;51.10;;;;;;4051835;29;20540;-58
2022/11/06 06:34:04;;;;;;;0.68;0.40;;;27.40;51.20;;;;;;4044796;29;20055;-58
2022/11/06 06:36:26;;;;;;;0.88;0.30;;;27.40;51.80;;;;;;4053551;29;20044;-59
2022/11/06 06:38:49;;;;;;;1.65;0.40;;;27.40;51.20;;;;;;4049302;29;20464;-58
2022/11/06 06:41:11;;;;;;;1.42;0.50;;;27.40;51.10;;;;;;4053932;29;20052;-57
2022/11/06 06:43:35;;;;;;;0.50;0.40;;;27.40;51.40;;;;;;4051485;29;20491;-58
2022/11/06 06:46:02;;;;;;;0.80;0.38;;;27.30;51.10;;;;;;4054933;29;20072;-59
2022/11/06 06:48:24;;;;;;;1.45;0.57;;;27.30;51.20;;;;;;4051205;29;20059;-59
2022/11/06 06:50:47;;;;;;;1.27;0.45;;;27.30;51.20;;;;;;4048035;29;20033;-58
2022/11/06 06:53:10;;;;;;;0.57;0.40;;;27.30;51.30;;;;;;4054917;29;20055;-58
2022/11/06 06:55:33;;;;;;;1.27;0.50;;;27.20;51.30;;;;;;4046386;29;20059;-58
2022/11/06 06:57:57;;;;;;;0.43;0.40;;;27.20;51.40;;;;;;4047421;29;20530;-58
2022/11/06 07:00:20;;;;;;;1.33;0.50;;;27.10;51.40;;;;;;4044182;29;20791;-58
2022/11/06 07:02:42;;;;;;;0.30;0.30;;;27.10;51.40;;;;;;4045433;29;20047;-58
2022/11/06 07:05:05;;;;;;;1.48;0.47;;;27.10;51.50;;;;;;4049493;29;20423;-58
2022/11/06 07:07:27;;;;;;;0.85;0.50;;;27.10;51.50;;;;;;4046671;29;20044;-58
2022/11/06 07:09:51;;;;;;;1.15;0.50;;;27.10;51.50;;;;;;4053303;29;20044;-57
2022/11/06 07:12:13;;;;;;;0.75;0.40;;;27.10;51.50;;;;;;4049557;29;20050;-58
2022/11/06 07:14:38;;;;;;;1.00;0.45;;;27.00;51.50;;;;;;4043605;29;20043;-58
2022/11/06 07:17:01;;;;;;;0.47;0.38;;;27.00;51.90;;;;;;4052719;29;20075;-58
2022/11/06 07:19:23;;;;;;;1.15;0.30;;;26.90;51.70;;;;;;4049318;29;20050;-57
2022/11/06 07:21:46;;;;;;;1.35;0.70;;;26.90;51.80;;;;;;4052364;29;20044;-58
2022/11/06 07:24:09;;;;;;;0.52;0.30;;;26.90;51.80;;;;;;4051328;29;20044;-58
2022/11/06 07:26:31;;;;;;;1.13;0.50;;;26.80;51.80;;;;;;4052903;29;20063;-58
2022/11/06 07:28:54;;;;;;;1.10;0.30;;;26.80;51.90;;;;;;4046566;29;20876;-58
2022/11/06 07:31:16;;;;;;;0.73;0.40;;;26.80;51.90;;;;;;4053257;29;20432;-58
2022/11/06 07:33:40;;;;;;;0.90;0.40;;;26.70;51.90;;;;;;4048947;29;20051;-58
2022/11/06 07:36:08;;;;;;;0.55;0.43;;;26.70;52.00;;;;;;4048236;29;20131;-58
2022/11/06 07:38:32;;;;;;;0.65;0.40;;;26.60;52.10;;;;;;4048325;29;20086;-57
2022/11/06 07:40:55;;;;;;;0.88;0.50;;;26.60;52.10;;;;;;4051473;29;20212;-58
2022/11/06 07:43:17;;;;;;;0.65;0.52;;;26.60;52.20;;;;;;4048466;29;20048;-56
2022/11/06 07:45:40;;;;;;;0.73;0.30;;;26.60;52.30;;;;;;4051717;29;20486;-58
2022/11/06 07:48:03;;;;;;;0.75;0.40;;;26.50;52.30;;;;;;4049622;29;20060;-57
2022/11/06 07:50:26;;;;;;;0.65;0.30;;;26.50;52.40;;;;;;4052268;29;20123;-57
2022/11/06 07:52:49;;;;;;;0.65;0.50;;;26.50;52.50;;;;;;4051220;29;20042;-58
2022/11/06 07:55:11;;;;;;;1.08;0.38;;;26.40;52.50;;;;;;4045967;29;20044;-58
2022/11/06 07:57:36;;;;;;;1.00;0.55;;;26.40;52.60;;;;;;4053130;29;20044;-58
2022/11/06 07:59:58;;;;;;;0.50;0.35;;;26.40;52.70;;;;;;4049399;29;20036;-58
2022/11/06 08:02:21;;;;;;;0.75;0.50;;;26.30;52.60;;;;;;4051169;29;20040;-58
2022/11/06 08:04:44;;;;;;;2.25;0.50;;;26.30;52.70;;;;;;4053033;29;20043;-57
2022/11/06 08:07:06;;;;;;;0.40;0.30;;;26.30;52.80;;;;;;4051786;29;20609;-57
2022/11/06 08:09:29;;;;;;;0.80;0.50;;;26.30;53.10;;;;;;4052237;29;20047;-57
2022/11/06 08:11:51;;;;;;;1.02;0.40;;;26.20;52.90;;;;;;4048683;29;20084;-58
2022/11/06 08:14:14;;;;;;;0.47;0.40;;;26.20;52.90;;;;;;4050513;29;20075;-56
2022/11/06 08:16:36;;;;;;;0.30;0.30;;;26.20;53.00;;;;;;4052401;29;21030;-58
2022/11/06 08:18:59;;;;;;;1.38;0.60;;;26.20;53.10;;;;;;4053283;29;20547;-57
2022/11/06 08:21:22;;;;;;;0.20;0.20;;;26.10;53.10;;;;;;4053903;29;20419;-58
2022/11/06 08:23:44;;;;;;;1.27;0.30;;;26.10;53.20;;;;;;4048207;29;20041;-57
2022/11/06 08:26:07;;;;;;;1.60;0.47;;;26.00;53.20;;;;;;4052306;29;20063;-56
2022/11/06 08:28:30;;;;;;;1.15;0.40;;;26.00;53.30;;;;;;4048063;29;20064;-57
2022/11/06 08:30:53;;;;;;;0.87;0.50;;;26.00;53.40;;;;;;4048972;29;20475;-55
2022/11/06 08:33:15;;;;;;;0.85;0.40;;;25.90;53.30;;;;;;4046356;29;20051;-57
2022/11/06 08:35:38;;;;;;;0.60;0.28;;;25.90;53.50;;;;;;4055036;29;20044;-57
2022/11/06 08:38:01;;;;;;;0.80;0.40;;;25.90;53.50;;;;;;4053944;29;20128;-57
2022/11/06 08:40:24;;;;;;;0.65;0.32;;;25.80;53.50;;;;;;4049784;29;20047;-56
2022/11/06 08:42:47;;;;;;;1.03;0.57;;;25.80;53.70;;;;;;4062504;29;20091;-58
2022/11/06 08:45:10;;;;;;;4.32;0.70;;;25.80;53.80;;;;;;4054813;29;20079;-58
2022/11/06 08:47:32;;;;;;;1.48;0.63;;;25.70;53.60;;;;;;4056837;29;20028;-58
2022/11/06 08:49:55;;;;;;;1.55;0.68;;;25.70;54.10;;;;;;4047328;29;20473;-57
2022/11/06 08:52:17;;;;;;;15.60;1.35;;;25.80;54.30;;;;;;4046886;29;20048;-55
2022/11/06 08:54:40;;;;;;;6.65;1.35;;;25.80;54.50;;;;;;4042281;29;20043;-54
2022/11/06 08:57:02;;;;;;;3.25;0.60;;;25.80;54.60;;;;;;4044489;29;20055;-55
2022/11/06 08:59:25;;;;;;;5.10;1.40;;;25.80;54.80;;;;;;4045015;29;20515;-56
2022/11/06 09:01:48;;;;;;;2.45;0.60;;;25.80;54.90;;;;;;4043002;29;20087;-57
2022/11/06 09:04:11;;;;;;;3.10;0.80;;;25.80;54.90;;;;;;4045487;29;20521;-50
2022/11/06 09:06:33;;;;;;;4.55;1.10;;;25.80;55.00;;;;;;4048249;29;20040;-53
2022/11/06 09:08:57;;;;;;;4.30;0.75;;;25.80;55.00;;;;;;4044101;29;20048;-56
2022/11/06 09:11:19;;;;;;;0.95;0.63;;;25.80;55.10;;;;;;4049284;29;20077;-52
2022/11/06 09:13:42;;;;;;;5.55;0.50;;;25.80;55.20;;;;;;4042543;29;20127;-53
2022/11/06 09:16:05;;;;;;;1.55;0.65;;;25.80;55.20;;;;;;4051008;29;20048;-55
2022/11/06 09:18:27;;;;;;;0.93;0.40;;;25.90;55.40;;;;;;4052459;29;20048;-55
2022/11/06 09:20:54;;;;;;;3.38;0.80;;;25.90;55.30;;;;;;4045786;29;20036;-52
2022/11/06 09:23:17;;;;;;;4.70;0.82;;;25.90;55.50;;;;;;4047904;29;20660;-47
2022/11/06 09:25:40;;;;;;;3.63;0.80;;;25.80;56.10;;;;;;4050018;29;20103;-43
2022/11/06 09:28:02;;;;;;;10.63;1.35;;;25.80;54.70;;;;;;4051074;29;20147;-43
2022/11/06 09:30:29;;;;;;;4.33;1.47;;;25.90;55.30;;;;;;4050710;29;20096;-44
2022/11/06 09:32:54;;;;;;;10.23;1.70;;;25.90;56.70;;;;;;4049321;29;20033;-42
2022/11/06 09:35:17;;;;;;;7.20;1.60;;;25.90;57.70;;;;;;4047900;29;20072;-49
2022/11/06 09:37:40;;;;;;;10.95;2.28;;;25.90;58.80;;;;;;4050613;29;20103;-52
2022/11/06 09:40:03;;;;;;;15.27;2.60;;;25.90;58.90;;;;;;4050974;29;20056;-48
2022/11/06 09:42:44;;;;;;;18.40;3.38;;;25.90;59.80;;;;;;4049856;29;20040;-44
2022/11/06 09:45:13;;;;;;;7.25;1.70;;;26.00;60.80;;;;;;4052835;29;20044;-43
2022/11/06 09:47:39;;;;;;;9.10;2.20;;;26.00;58.60;;;;;;4043651;29;20063;-45
2022/11/06 09:50:03;;;;;;;5.63;1.70;;;25.90;57.70;;;;;;4049939;29;20064;-43
2022/11/06 09:52:38;;;;;;;6.78;2.10;;;25.80;57.90;;;;;;4043893;29;20036;-43
2022/11/06 09:55:12;;;;;;;8.75;1.52;;;25.70;58.00;;;;;;4046636;29;20043;-44
2022/11/06 09:57:53;;;;;;;17.02;1.90;;;25.70;58.10;;;;;;4046949;29;20126;-46
2022/11/06 10:00:17;;;;;;;13.52;2.20;;;25.60;58.10;;;;;;4045354;29;20051;-42
2022/11/06 10:03:05;;;;;;;;;;;25.70;58.40;;;;;;4043785;29;20048;-43
2022/11/06 10:05:37;;;;;;;5.25;1.20;;;25.60;58.30;;;;;;4043798;29;20355;-44
2022/11/06 10:08:23;;;;;;;7.38;1.50;;;25.60;58.20;;;;;;4045154;29;20088;-43
2022/11/06 10:10:46;;;;;;;5.03;0.88;;;25.60;58.10;;;;;;4050827;29;20541;-42
2022/11/06 10:13:21;;;;;;;8.20;0.98;;;25.60;58.30;;;;;;4043479;29;20063;-43
2022/11/06 10:16:04;;;;;;;3.33;0.80;;;25.60;58.70;;;;;;4051175;29;20248;-45
2022/11/06 10:19:01;;;;;;;8.75;1.45;;;25.60;57.80;;;;;;4047451;29;20036;-46
2022/11/06 10:21:32;;;;;;;27.83;3.17;;;25.60;57.80;;;;;;4038621;29;20456;-45
2022/11/06 10:24:04;;;;;;;42.33;3.42;;;25.50;57.80;;;;;;4044571;29;20102;-49
2022/11/06 10:26:38;;;;;;;31.17;2.95;;;25.60;57.70;;;;;;4050126;29;20040;-50
2022/11/06 10:29:50;;;;;;;26.33;3.03;;;25.60;57.80;;;;;;4040971;29;20103;-55
2022/11/06 10:32:48;;;;;;;26.98;2.47;;;25.60;57.80;;;;;;4041410;29;20534;-56
2022/11/06 10:35:33;;;;;;;17.45;2.00;;;25.60;58.00;;;;;;4048670;29;20117;-52
2022/11/06 10:38:14;;;;;;;44.45;3.85;;;25.60;57.90;;;;;;4041991;29;20681;-44
2022/11/06 10:40:38;;;;;;;26.05;2.78;;;25.60;58.00;;;;;;4046181;29;20048;-47
2022/11/06 10:43:03;;;;;;;;;;;25.60;58.10;;;;;;4041162;29;20040;-46
2022/11/06 10:45:28;;;;;;;13.02;1.88;;;25.60;58.00;;;;;;4047112;29;19958;-46
2022/11/06 10:48:09;;;;;;;5.25;1.25;;;25.60;58.00;;;;;;4045212;29;20050;-46
2022/11/06 10:50:51;;;;;;;6.05;0.98;;;25.60;57.80;;;;;;4044359;29;20032;-46
2022/11/06 10:53:32;;;;;;;3.75;1.00;;;25.50;57.60;;;;;;4044232;29;20041;-44
2022/11/06 10:56:08;;;;;;;3.83;1.20;;;25.50;57.60;;;;;;4046645;29;20052;-45
2022/11/06 10:58:32;;;;;;;3.50;0.85;;;25.50;57.60;;;;;;4043882;29;20112;-45
2022/11/06 11:01:01;;;;;;;2.85;1.00;;;25.50;57.50;;;;;;4041727;29;20087;-45
2022/11/06 11:03:27;;;;;;;0.50;0.50;;;25.40;57.50;;;;;;4040101;29;20475;-44
2022/11/06 11:05:50;;;;;;;2.33;0.80;;;25.40;57.40;;;;;;4042263;29;20404;-48
2022/11/06 11:08:32;;;;;;;2.47;0.88;;;25.40;57.40;;;;;;4043347;29;20052;-46
2022/11/06 11:11:21;;;;;;;3.88;0.85;;;25.40;57.50;;;;;;4041843;29;20131;-48
2022/11/06 11:13:50;;;;;;;14.50;1.92;;;25.40;57.50;;;;;;4050836;29;20099;-51
2022/11/06 11:16:22;;;;;;;10.52;1.25;;;25.40;57.40;;;;;;4053785;29;20082;-50
2022/11/06 11:18:45;;;;;;;20.42;2.17;;;25.40;57.40;;;;;;4053551;29;20802;-47
2022/11/06 11:21:17;;;;;;;19.92;3.28;;;25.40;57.30;;;;;;4048927;29;20032;-47
2022/11/06 11:23:40;;;;;;;10.05;1.63;;;25.40;57.40;;;;;;4050013;29;20036;-52
2022/11/06 11:26:21;;;;;;;6.78;1.17;;;25.40;57.60;;;;;;4048967;29;20044;-48
2022/11/06 11:28:49;;;;;;;12.07;1.20;;;25.40;57.60;;;;;;4052790;29;20727;-50
2022/11/06 11:31:16;;;;;;;2.47;0.77;;;25.40;57.70;;;;;;4044030;29;20068;-48
2022/11/06 11:33:41;;;;;;;4.32;0.80;;;25.40;57.70;;;;;;4046850;29;20497;-46
2022/11/06 11:36:06;;;;;;;4.00;0.80;;;25.40;57.70;;;;;;4047355;29;20131;-48
2022/11/06 11:38:29;;;;;;;2.10;0.85;;;25.40;57.70;;;;;;4051620;29;20068;-48
2022/11/06 11:41:04;;;;;;;1.73;0.80;;;25.40;57.70;;;;;;4051334;29;20040;-53
2022/11/06 11:43:28;;;;;;;2.95;0.65;;;25.40;57.60;;;;;;4045607;29;20512;-48
2022/11/06 11:46:09;;;;;;;2.15;0.52;;;25.30;57.60;;;;;;4050105;29;20040;-48
2022/11/06 11:48:46;;;;;;;5.32;1.00;;;25.30;57.70;;;;;;4048404;29;20062;-48
2022/11/06 11:51:30;;;;;;;4.13;0.80;;;25.30;57.80;;;;;;4050301;29;20318;-50
2022/11/06 11:54:13;;;;;;;2.50;0.63;;;25.30;57.80;;;;;;4045025;29;20048;-50
2022/11/06 11:56:47;;;;;;;1.95;0.70;;;25.30;57.70;;;;;;4050270;29;20064;-50
2022/11/06 11:59:18;;;;;;;3.50;0.70;;;25.30;57.70;;;;;;4047249;29;20048;-46
2022/11/06 12:01:41;;;;;;;2.13;0.68;;;25.30;57.70;;;;;;4044017;29;20047;-53
2022/11/06 12:04:20;;;;;;;3.80;1.05;;;25.30;57.60;;;;;;4043145;29;20051;-50
2022/11/06 12:06:58;;;;;;;2.35;0.63;;;25.30;57.60;;;;;;4043113;29;20035;-46
2022/11/06 12:09:21;;;;;;;1.70;0.65;;;25.30;57.50;;;;;;4049169;29;20624;-45
2022/11/06 12:11:45;;;;;;;4.68;0.85;;;25.30;57.50;;;;;;4046722;29;20043;-48
2022/11/06 12:14:30;;;;;;;3.08;0.63;;;25.30;57.50;;;;;;4043985;29;20127;-45
2022/11/06 12:17:05;;;;;;;6.53;1.10;;;25.30;57.50;;;;;;4048523;29;20518;-47
2022/11/06 12:19:32;;;;;;;3.03;0.80;;;25.30;57.50;;;;;;4043666;29;20091;-49
2022/11/06 12:21:58;;;;;;;6.07;0.90;;;25.30;57.60;;;;;;4046484;29;20119;-44
2022/11/06 12:24:45;;;;;;;3.47;0.80;;;25.20;57.60;;;;;;4046431;29;20032;-45
2022/11/06 12:27:32;;;;;;;4.43;0.80;;;25.20;57.60;;;;;;4047698;29;20115;-49
2022/11/06 12:30:02;;;;;;;2.22;0.60;;;25.20;57.60;;;;;;4049606;29;20100;-44
2022/11/06 12:32:43;;;;;;;2.35;0.70;;;25.20;57.50;;;;;;4048468;29;20072;-44
2022/11/06 12:35:18;;;;;;;1.80;0.75;;;25.20;57.60;;;;;;4047838;29;20130;-44
2022/11/06 12:37:57;;;;;;;5.93;1.02;;;25.20;57.60;;;;;;4047882;29;20145;-48
2022/11/06 12:40:29;;;;;;;1.40;0.68;;;25.10;57.60;;;;;;4046953;29;20584;-44
2022/11/06 12:43:14;;;;;;;3.17;1.02;;;25.20;57.60;;;;;;4047894;29;20040;-45
2022/11/06 12:45:40;;;;;;;3.20;0.63;;;25.10;57.60;;;;;;4047686;29;20600;-44
2022/11/06 12:48:25;;;;;;;3.53;0.82;;;25.10;57.60;;;;;;4046944;29;20052;-43
2022/11/06 12:51:10;;;;;;;1.35;0.45;;;25.10;57.60;;;;;;4046557;29;20049;-46
2022/11/06 12:54:07;;;;;;;8.70;1.08;;;25.10;57.60;;;;;;4050245;29;20039;-44
2022/11/06 12:56:55;;;;;;;4.72;0.90;;;25.10;57.40;;;;;;4051647;29;20044;-45
2022/11/06 12:59:32;;;;;;;3.28;0.90;;;25.00;57.30;;;;;;4043892;29;20452;-46
2022/11/06 13:02:14;;;;;;;2.63;0.57;;;25.00;57.20;;;;;;4049306;29;20478;-48
2022/11/06 13:04:50;;;;;;;7.55;1.17;;;24.90;57.40;;;;;;4050722;29;20488;-44
2022/11/06 13:07:31;;;;;;;4.45;1.08;;;24.90;57.60;;;;;;4047131;29;20040;-47
2022/11/06 13:10:08;;;;;;;2.35;0.77;;;25.00;57.80;;;;;;4045204;29;20638;-44